This is the latest recevied weather packets stored in our database for station/object DF7ER-12. If no packets are shown the sender has not sent any weather packets the latest 1 day(s).
| Time | Temp. | Humidity | Pressure | Rain* | Wind** | Luminosity | Snow |
|---|---|---|---|---|---|---|---|
| 1778050604 | 10° C | 100% | 996.3 hPa | - | - | - | - |
| 1778049704 | 10° C | 100% | 996.2 hPa | - | - | - | - |
| 1778049404 | 10.56° C | 100% | 996.2 hPa | - | - | - | - |
| 1778049104 | 10° C | 100% | 996.2 hPa | - | - | - | - |
| 1778048804 | 10° C | 100% | 996.2 hPa | - | - | - | - |
| 1778048204 | 10° C | 100% | 996.1 hPa | - | - | - | - |
| 1778047304 | 10° C | 100% | 996 hPa | - | - | - | - |
| 1778046404 | 10° C | 100% | 995.9 hPa | - | - | - | - |
| 1778045504 | 10° C | 100% | 996 hPa | - | - | - | - |
| 1778043704 | 10.56° C | 100% | 996 hPa | - | - | - | - |
| 1778042804 | 10.56° C | 100% | 996.1 hPa | - | - | - | - |
| 1778041604 | 10.56° C | 100% | 996.2 hPa | - | - | - | - |
| 1778041004 | 10.56° C | 100% | 996.3 hPa | - | - | - | - |
| 1778040104 | 11.11° C | 100% | 996.3 hPa | - | - | - | - |
| 1778039804 | 11.67° C | 100% | 996.3 hPa | - | - | - | - |
| 1778039204 | 11.11° C | 100% | 996.3 hPa | - | - | - | - |
| 1778038904 | 11.67° C | 100% | 996.3 hPa | - | - | - | - |
| 1778038604 | 11.67° C | 100% | 996.4 hPa | - | - | - | - |
| 1778038004 | 11.11° C | 100% | 996.4 hPa | - | - | - | - |
| 1778037404 | 11.67° C | 100% | 996.4 hPa | - | - | - | - |
| 1778037104 | 12.22° C | 98% | 996.5 hPa | - | - | - | - |
| 1778036804 | 12.22° C | 100% | 996.5 hPa | - | - | - | - |
| 1777997887 | 15° C | 100% | 998.7 hPa | - | - | - | - |
| 1777996662 | 15° C | 100% | 998.9 hPa | - | - | - | - |
| 1777995433 | 15° C | 100% | 999.1 hPa | - | - | - | - |
* Rain since midnight (hover to see other rain measurements)
** Current wind speed in m/s (hover to see current wind gust speed)